Bryan, Texas
Current Conditions -  °F | °C
As of 8:55 AM on Monday 24 Nov 2014 (Local Time) from KCFD Reporting Station
Clear Clear  
Wind Chill: 11°   Ceiling: Unl
Heat Index: 11°   Visibility: 10mi
Dew Point:   Wind: 7mph
Humidity: 62%   Direction: 330°NNW
Pressure: 30.08"   Gusts: NA
Location:  30.67°N, 96.37°W
Report Text: KCFD 241455Z AUTO 33006KT 10SM CLR 11/04 A3008 RMK AO2 T01080038
Loading
Personal Weather Stations






























Interactive Weather Map New forecast layout! Learn more

10-Day Weather Forecast

Advertisements
Track Severe Weather on mobile